sensor_id;sensor_type;location;lat;lon;timestamp;P1;durP1;ratioP1;P2;durP2;ratioP2
11486;SDS011;10510;47.942;9.442;2022-11-14T00:00:03;24.02;;;12.13;;
11486;SDS011;10510;47.942;9.442;2022-11-14T00:02:06;26.35;;;12.85;;
11486;SDS011;10510;47.942;9.442;2022-11-14T00:04:06;28.38;;;12.48;;
11486;SDS011;10510;47.942;9.442;2022-11-14T00:06:07;27.15;;;13.30;;
11486;SDS011;10510;47.942;9.442;2022-11-14T00:08:14;28.30;;;12.77;;
11486;SDS011;10510;47.942;9.442;2022-11-14T00:10:19;24.05;;;12.38;;
11486;SDS011;10510;47.942;9.442;2022-11-14T00:12:20;26.50;;;12.95;;
11486;SDS011;10510;47.942;9.442;2022-11-14T00:14:20;24.17;;;12.43;;
11486;SDS011;10510;47.942;9.442;2022-11-14T00:16:21;25.90;;;12.20;;
11486;SDS011;10510;47.942;9.442;2022-11-14T00:18:21;24.92;;;12.52;;
11486;SDS011;10510;47.942;9.442;2022-11-14T00:20:22;30.77;;;13.10;;
11486;SDS011;10510;47.942;9.442;2022-11-14T00:22:22;29.95;;;13.35;;
11486;SDS011;10510;47.942;9.442;2022-11-14T00:24:23;26.88;;;13.52;;
11486;SDS011;10510;47.942;9.442;2022-11-14T00:26:23;25.67;;;13.00;;
11486;SDS011;10510;47.942;9.442;2022-11-14T00:28:23;25.90;;;12.85;;
11486;SDS011;10510;47.942;9.442;2022-11-14T00:30:23;23.13;;;11.73;;
11486;SDS011;10510;47.942;9.442;2022-11-14T00:32:24;24.50;;;12.68;;
11486;SDS011;10510;47.942;9.442;2022-11-14T00:34:24;31.85;;;12.85;;
11486;SDS011;10510;47.942;9.442;2022-11-14T00:36:25;28.42;;;13.05;;
11486;SDS011;10510;47.942;9.442;2022-11-14T00:38:25;25.10;;;12.30;;
11486;SDS011;10510;47.942;9.442;2022-11-14T00:40:25;23.63;;;12.07;;
11486;SDS011;10510;47.942;9.442;2022-11-14T00:42:26;36.08;;;13.07;;
11486;SDS011;10510;47.942;9.442;2022-11-14T00:44:26;29.85;;;13.63;;
11486;SDS011;10510;47.942;9.442;2022-11-14T00:46:26;29.45;;;13.25;;
11486;SDS011;10510;47.942;9.442;2022-11-14T00:48:26;30.15;;;13.82;;
11486;SDS011;10510;47.942;9.442;2022-11-14T00:50:27;39.60;;;13.70;;
11486;SDS011;10510;47.942;9.442;2022-11-14T00:52:27;40.03;;;12.90;;
11486;SDS011;10510;47.942;9.442;2022-11-14T00:54:27;25.70;;;12.93;;
11486;SDS011;10510;47.942;9.442;2022-11-14T00:56:28;33.63;;;13.98;;
11486;SDS011;10510;47.942;9.442;2022-11-14T00:58:28;29.55;;;13.05;;
11486;SDS011;10510;47.942;9.442;2022-11-14T01:00:28;33.15;;;13.93;;
11486;SDS011;10510;47.942;9.442;2022-11-14T01:02:28;28.27;;;12.45;;
11486;SDS011;10510;47.942;9.442;2022-11-14T01:04:29;25.02;;;12.05;;
11486;SDS011;10510;47.942;9.442;2022-11-14T01:06:29;34.72;;;13.35;;
11486;SDS011;10510;47.942;9.442;2022-11-14T01:08:29;63.90;;;12.90;;
11486;SDS011;10510;47.942;9.442;2022-11-14T01:10:30;35.10;;;13.50;;
11486;SDS011;10510;47.942;9.442;2022-11-14T01:12:30;30.75;;;13.35;;
11486;SDS011;10510;47.942;9.442;2022-11-14T01:14:30;35.42;;;14.77;;
11486;SDS011;10510;47.942;9.442;2022-11-14T01:16:30;33.45;;;14.50;;
11486;SDS011;10510;47.942;9.442;2022-11-14T01:18:31;33.03;;;13.27;;
11486;SDS011;10510;47.942;9.442;2022-11-14T01:20:32;28.73;;;13.20;;
11486;SDS011;10510;47.942;9.442;2022-11-14T01:22:32;52.83;;;14.18;;
11486;SDS011;10510;47.942;9.442;2022-11-14T01:24:32;33.42;;;12.20;;
11486;SDS011;10510;47.942;9.442;2022-11-14T01:26:33;42.03;;;14.27;;
11486;SDS011;10510;47.942;9.442;2022-11-14T01:28:33;46.92;;;13.88;;
11486;SDS011;10510;47.942;9.442;2022-11-14T01:30:34;37.05;;;12.77;;
11486;SDS011;10510;47.942;9.442;2022-11-14T01:32:35;30.73;;;15.23;;
11486;SDS011;10510;47.942;9.442;2022-11-14T01:34:35;32.80;;;12.38;;
11486;SDS011;10510;47.942;9.442;2022-11-14T01:36:35;26.90;;;12.38;;
11486;SDS011;10510;47.942;9.442;2022-11-14T01:38:36;39.20;;;15.45;;
11486;SDS011;10510;47.942;9.442;2022-11-14T01:40:40;24.58;;;11.38;;
11486;SDS011;10510;47.942;9.442;2022-11-14T01:42:42;27.02;;;12.07;;
11486;SDS011;10510;47.942;9.442;2022-11-14T01:46:48;36.05;;;15.35;;
11486;SDS011;10510;47.942;9.442;2022-11-14T01:51:19;29.35;;;13.88;;
11486;SDS011;10510;47.942;9.442;2022-11-14T01:53:24;35.60;;;14.20;;
11486;SDS011;10510;47.942;9.442;2022-11-14T01:55:24;36.72;;;13.40;;
11486;SDS011;10510;47.942;9.442;2022-11-14T01:57:28;32.90;;;14.38;;
11486;SDS011;10510;47.942;9.442;2022-11-14T01:59:35;37.85;;;14.07;;
11486;SDS011;10510;47.942;9.442;2022-11-14T02:01:45;36.08;;;14.57;;
11486;SDS011;10510;47.942;9.442;2022-11-14T02:03:50;40.90;;;14.25;;
11486;SDS011;10510;47.942;9.442;2022-11-14T02:05:53;33.53;;;13.73;;
11486;SDS011;10510;47.942;9.442;2022-11-14T02:07:55;32.03;;;13.65;;
11486;SDS011;10510;47.942;9.442;2022-11-14T02:09:56;35.55;;;14.75;;
11486;SDS011;10510;47.942;9.442;2022-11-14T02:12:00;34.63;;;15.23;;
11486;SDS011;10510;47.942;9.442;2022-11-14T02:14:03;34.88;;;14.20;;
11486;SDS011;10510;47.942;9.442;2022-11-14T02:16:05;34.17;;;13.13;;
11486;SDS011;10510;47.942;9.442;2022-11-14T02:18:05;30.70;;;14.30;;
11486;SDS011;10510;47.942;9.442;2022-11-14T02:22:09;34.38;;;13.80;;
11486;SDS011;10510;47.942;9.442;2022-11-14T02:24:10;34.30;;;13.52;;
11486;SDS011;10510;47.942;9.442;2022-11-14T02:26:14;32.20;;;13.63;;
11486;SDS011;10510;47.942;9.442;2022-11-14T02:28:16;30.05;;;12.88;;
11486;SDS011;10510;47.942;9.442;2022-11-14T02:30:17;28.98;;;13.52;;
11486;SDS011;10510;47.942;9.442;2022-11-14T02:32:20;34.25;;;13.93;;
11486;SDS011;10510;47.942;9.442;2022-11-14T02:34:20;37.33;;;14.73;;
11486;SDS011;10510;47.942;9.442;2022-11-14T02:36:20;33.83;;;14.30;;
11486;SDS011;10510;47.942;9.442;2022-11-14T02:38:21;33.13;;;14.25;;
11486;SDS011;10510;47.942;9.442;2022-11-14T02:40:21;36.47;;;14.98;;
11486;SDS011;10510;47.942;9.442;2022-11-14T02:42:21;28.50;;;12.27;;
11486;SDS011;10510;47.942;9.442;2022-11-14T02:44:21;30.85;;;14.38;;
11486;SDS011;10510;47.942;9.442;2022-11-14T02:46:22;27.58;;;13.27;;
11486;SDS011;10510;47.942;9.442;2022-11-14T02:48:22;34.45;;;13.30;;
11486;SDS011;10510;47.942;9.442;2022-11-14T02:50:22;32.72;;;14.68;;
11486;SDS011;10510;47.942;9.442;2022-11-14T02:52:23;32.47;;;14.50;;
11486;SDS011;10510;47.942;9.442;2022-11-14T02:54:23;28.70;;;13.75;;
11486;SDS011;10510;47.942;9.442;2022-11-14T02:56:23;35.38;;;14.70;;
11486;SDS011;10510;47.942;9.442;2022-11-14T02:58:23;30.92;;;13.60;;
11486;SDS011;10510;47.942;9.442;2022-11-14T03:00:24;31.25;;;13.38;;
11486;SDS011;10510;47.942;9.442;2022-11-14T03:02:24;32.17;;;13.40;;
11486;SDS011;10510;47.942;9.442;2022-11-14T03:04:24;30.65;;;14.63;;
11486;SDS011;10510;47.942;9.442;2022-11-14T03:06:25;33.08;;;14.10;;
11486;SDS011;10510;47.942;9.442;2022-11-14T03:08:25;33.00;;;13.40;;
11486;SDS011;10510;47.942;9.442;2022-11-14T03:10:26;30.42;;;13.65;;
11486;SDS011;10510;47.942;9.442;2022-11-14T03:12:26;29.73;;;12.95;;
11486;SDS011;10510;47.942;9.442;2022-11-14T03:14:28;34.00;;;13.70;;
11486;SDS011;10510;47.942;9.442;2022-11-14T03:16:30;39.20;;;14.15;;
11486;SDS011;10510;47.942;9.442;2022-11-14T03:18:30;32.70;;;13.95;;
11486;SDS011;10510;47.942;9.442;2022-11-14T03:20:30;31.77;;;14.27;;
11486;SDS011;10510;47.942;9.442;2022-11-14T03:22:31;34.42;;;14.85;;
11486;SDS011;10510;47.942;9.442;2022-11-14T03:24:31;32.20;;;14.52;;
11486;SDS011;10510;47.942;9.442;2022-11-14T03:26:31;27.40;;;13.50;;
11486;SDS011;10510;47.942;9.442;2022-11-14T03:28:32;34.92;;;14.80;;
11486;SDS011;10510;47.942;9.442;2022-11-14T03:30:33;33.38;;;13.25;;
11486;SDS011;10510;47.942;9.442;2022-11-14T03:32:33;32.97;;;14.35;;
11486;SDS011;10510;47.942;9.442;2022-11-14T03:34:33;28.50;;;13.60;;
11486;SDS011;10510;47.942;9.442;2022-11-14T03:36:34;33.72;;;15.10;;
11486;SDS011;10510;47.942;9.442;2022-11-14T03:38:34;25.65;;;13.55;;
11486;SDS011;10510;47.942;9.442;2022-11-14T03:40:38;33.53;;;14.48;;
11486;SDS011;10510;47.942;9.442;2022-11-14T03:42:39;28.98;;;13.60;;
11486;SDS011;10510;47.942;9.442;2022-11-14T03:44:39;26.70;;;12.40;;
11486;SDS011;10510;47.942;9.442;2022-11-14T03:46:39;27.25;;;13.52;;
11486;SDS011;10510;47.942;9.442;2022-11-14T03:48:40;32.80;;;15.65;;
11486;SDS011;10510;47.942;9.442;2022-11-14T03:50:40;33.85;;;14.20;;
11486;SDS011;10510;47.942;9.442;2022-11-14T03:52:41;35.75;;;15.00;;
11486;SDS011;10510;47.942;9.442;2022-11-14T03:54:42;43.75;;;15.38;;
11486;SDS011;10510;47.942;9.442;2022-11-14T03:56:42;31.55;;;14.35;;
11486;SDS011;10510;47.942;9.442;2022-11-14T03:58:42;36.53;;;16.38;;
11486;SDS011;10510;47.942;9.442;2022-11-14T04:00:42;47.53;;;17.17;;
11486;SDS011;10510;47.942;9.442;2022-11-14T04:02:43;41.42;;;16.45;;
11486;SDS011;10510;47.942;9.442;2022-11-14T04:04:43;45.38;;;16.70;;
11486;SDS011;10510;47.942;9.442;2022-11-14T04:06:43;38.90;;;16.80;;
11486;SDS011;10510;47.942;9.442;2022-11-14T04:08:44;43.70;;;16.48;;
11486;SDS011;10510;47.942;9.442;2022-11-14T04:10:46;41.25;;;16.50;;
11486;SDS011;10510;47.942;9.442;2022-11-14T04:12:48;43.25;;;16.63;;
11486;SDS011;10510;47.942;9.442;2022-11-14T04:14:49;38.45;;;16.20;;
11486;SDS011;10510;47.942;9.442;2022-11-14T04:16:49;38.97;;;16.40;;
11486;SDS011;10510;47.942;9.442;2022-11-14T04:18:50;38.38;;;16.65;;
11486;SDS011;10510;47.942;9.442;2022-11-14T04:20:50;39.25;;;16.63;;
11486;SDS011;10510;47.942;9.442;2022-11-14T04:22:51;46.53;;;17.05;;
11486;SDS011;10510;47.942;9.442;2022-11-14T04:24:51;38.67;;;16.35;;
11486;SDS011;10510;47.942;9.442;2022-11-14T04:26:51;37.42;;;16.35;;
11486;SDS011;10510;47.942;9.442;2022-11-14T04:28:52;37.50;;;15.80;;
11486;SDS011;10510;47.942;9.442;2022-11-14T04:30:52;37.28;;;14.55;;
11486;SDS011;10510;47.942;9.442;2022-11-14T04:32:52;39.22;;;15.70;;
11486;SDS011;10510;47.942;9.442;2022-11-14T04:34:53;32.72;;;14.80;;
11486;SDS011;10510;47.942;9.442;2022-11-14T04:36:53;29.10;;;13.90;;
11486;SDS011;10510;47.942;9.442;2022-11-14T04:38:53;31.15;;;14.10;;
11486;SDS011;10510;47.942;9.442;2022-11-14T04:40:53;36.90;;;15.55;;
11486;SDS011;10510;47.942;9.442;2022-11-14T04:42:54;37.17;;;15.73;;
11486;SDS011;10510;47.942;9.442;2022-11-14T04:44:54;32.92;;;14.27;;
11486;SDS011;10510;47.942;9.442;2022-11-14T04:46:54;31.75;;;14.18;;
11486;SDS011;10510;47.942;9.442;2022-11-14T04:48:55;29.92;;;14.05;;
11486;SDS011;10510;47.942;9.442;2022-11-14T04:50:55;35.40;;;15.55;;
11486;SDS011;10510;47.942;9.442;2022-11-14T04:52:55;36.72;;;15.85;;
11486;SDS011;10510;47.942;9.442;2022-11-14T04:54:55;32.80;;;15.85;;
11486;SDS011;10510;47.942;9.442;2022-11-14T04:56:56;36.13;;;17.45;;
11486;SDS011;10510;47.942;9.442;2022-11-14T04:58:56;32.33;;;15.35;;
11486;SDS011;10510;47.942;9.442;2022-11-14T05:00:56;29.27;;;13.73;;
11486;SDS011;10510;47.942;9.442;2022-11-14T05:02:57;38.45;;;15.90;;
11486;SDS011;10510;47.942;9.442;2022-11-14T05:04:59;39.85;;;16.15;;
11486;SDS011;10510;47.942;9.442;2022-11-14T05:06:59;34.60;;;15.57;;
11486;SDS011;10510;47.942;9.442;2022-11-14T05:08:59;37.17;;;15.05;;
11486;SDS011;10510;47.942;9.442;2022-11-14T05:10:59;40.10;;;15.68;;
11486;SDS011;10510;47.942;9.442;2022-11-14T05:13:00;32.70;;;14.48;;
11486;SDS011;10510;47.942;9.442;2022-11-14T05:15:00;36.80;;;16.35;;
11486;SDS011;10510;47.942;9.442;2022-11-14T05:17:00;33.33;;;15.82;;
11486;SDS011;10510;47.942;9.442;2022-11-14T05:19:01;39.25;;;16.90;;
11486;SDS011;10510;47.942;9.442;2022-11-14T05:21:01;30.55;;;14.98;;
11486;SDS011;10510;47.942;9.442;2022-11-14T05:23:02;29.45;;;13.45;;
11486;SDS011;10510;47.942;9.442;2022-11-14T05:25:03;28.80;;;13.40;;
11486;SDS011;10510;47.942;9.442;2022-11-14T05:27:04;30.17;;;13.48;;
11486;SDS011;10510;47.942;9.442;2022-11-14T05:29:04;30.63;;;14.10;;
11486;SDS011;10510;47.942;9.442;2022-11-14T05:31:06;29.50;;;12.77;;
11486;SDS011;10510;47.942;9.442;2022-11-14T05:33:07;27.17;;;12.52;;
11486;SDS011;10510;47.942;9.442;2022-11-14T05:35:08;24.27;;;11.50;;
11486;SDS011;10510;47.942;9.442;2022-11-14T05:37:08;34.25;;;14.15;;
11486;SDS011;10510;47.942;9.442;2022-11-14T05:39:08;30.20;;;14.13;;
11486;SDS011;10510;47.942;9.442;2022-11-14T05:41:10;31.05;;;13.50;;
11486;SDS011;10510;47.942;9.442;2022-11-14T05:43:12;32.08;;;16.30;;
11486;SDS011;10510;47.942;9.442;2022-11-14T05:45:12;28.63;;;13.93;;
11486;SDS011;10510;47.942;9.442;2022-11-14T05:47:13;31.00;;;14.00;;
11486;SDS011;10510;47.942;9.442;2022-11-14T05:49:13;29.30;;;11.57;;
11486;SDS011;10510;47.942;9.442;2022-11-14T05:51:13;22.83;;;11.13;;
11486;SDS011;10510;47.942;9.442;2022-11-14T05:53:13;31.92;;;14.10;;
11486;SDS011;10510;47.942;9.442;2022-11-14T05:55:14;32.88;;;14.10;;
11486;SDS011;10510;47.942;9.442;2022-11-14T05:57:14;31.48;;;13.00;;
11486;SDS011;10510;47.942;9.442;2022-11-14T05:59:14;23.90;;;12.07;;
11486;SDS011;10510;47.942;9.442;2022-11-14T06:01:15;26.80;;;12.18;;
11486;SDS011;10510;47.942;9.442;2022-11-14T06:03:18;22.00;;;11.15;;
11486;SDS011;10510;47.942;9.442;2022-11-14T06:05:19;25.75;;;12.13;;
11486;SDS011;10510;47.942;9.442;2022-11-14T06:07:20;22.08;;;10.88;;
11486;SDS011;10510;47.942;9.442;2022-11-14T06:09:20;27.35;;;10.45;;
11486;SDS011;10510;47.942;9.442;2022-11-14T06:11:20;23.42;;;11.05;;
11486;SDS011;10510;47.942;9.442;2022-11-14T06:13:21;20.67;;;11.07;;
11486;SDS011;10510;47.942;9.442;2022-11-14T06:15:23;28.17;;;12.75;;
11486;SDS011;10510;47.942;9.442;2022-11-14T06:17:23;27.63;;;13.60;;
11486;SDS011;10510;47.942;9.442;2022-11-14T06:19:23;33.00;;;13.02;;
11486;SDS011;10510;47.942;9.442;2022-11-14T06:21:24;28.08;;;13.00;;
11486;SDS011;10510;47.942;9.442;2022-11-14T06:23:25;34.00;;;14.82;;
11486;SDS011;10510;47.942;9.442;2022-11-14T06:25:26;31.38;;;15.63;;
11486;SDS011;10510;47.942;9.442;2022-11-14T06:27:26;45.67;;;21.33;;
11486;SDS011;10510;47.942;9.442;2022-11-14T06:29:26;40.83;;;17.38;;
11486;SDS011;10510;47.942;9.442;2022-11-14T06:31:27;34.95;;;14.25;;
11486;SDS011;10510;47.942;9.442;2022-11-14T06:33:27;38.13;;;16.60;;
11486;SDS011;10510;47.942;9.442;2022-11-14T06:35:31;33.78;;;14.05;;
11486;SDS011;10510;47.942;9.442;2022-11-14T06:37:34;31.65;;;14.15;;
11486;SDS011;10510;47.942;9.442;2022-11-14T06:39:35;32.58;;;14.15;;
11486;SDS011;10510;47.942;9.442;2022-11-14T06:41:35;32.42;;;14.45;;
11486;SDS011;10510;47.942;9.442;2022-11-14T06:43:36;34.45;;;14.77;;
11486;SDS011;10510;47.942;9.442;2022-11-14T06:45:38;32.85;;;14.40;;
11486;SDS011;10510;47.942;9.442;2022-11-14T06:47:38;32.75;;;14.55;;
11486;SDS011;10510;47.942;9.442;2022-11-14T06:49:38;34.60;;;14.93;;
11486;SDS011;10510;47.942;9.442;2022-11-14T06:51:38;31.58;;;16.05;;
11486;SDS011;10510;47.942;9.442;2022-11-14T06:53:39;33.55;;;15.90;;
11486;SDS011;10510;47.942;9.442;2022-11-14T06:55:40;36.28;;;16.85;;
11486;SDS011;10510;47.942;9.442;2022-11-14T06:57:40;33.15;;;17.08;;
11486;SDS011;10510;47.942;9.442;2022-11-14T06:59:40;38.08;;;16.70;;
11486;SDS011;10510;47.942;9.442;2022-11-14T07:01:41;37.63;;;16.15;;
11486;SDS011;10510;47.942;9.442;2022-11-14T07:03:42;47.28;;;18.25;;
11486;SDS011;10510;47.942;9.442;2022-11-14T07:05:43;36.97;;;13.95;;
11486;SDS011;10510;47.942;9.442;2022-11-14T07:07:43;30.00;;;13.18;;
11486;SDS011;10510;47.942;9.442;2022-11-14T07:09:44;31.15;;;13.75;;
11486;SDS011;10510;47.942;9.442;2022-11-14T07:11:44;28.15;;;13.60;;
11486;SDS011;10510;47.942;9.442;2022-11-14T07:13:45;31.98;;;14.90;;
11486;SDS011;10510;47.942;9.442;2022-11-14T07:15:52;31.30;;;13.43;;
11486;SDS011;10510;47.942;9.442;2022-11-14T07:17:52;31.75;;;14.77;;
11486;SDS011;10510;47.942;9.442;2022-11-14T07:19:53;31.58;;;14.85;;
11486;SDS011;10510;47.942;9.442;2022-11-14T07:21:53;28.73;;;13.45;;
11486;SDS011;10510;47.942;9.442;2022-11-14T07:23:54;32.63;;;13.75;;
11486;SDS011;10510;47.942;9.442;2022-11-14T07:25:55;28.17;;;13.73;;
11486;SDS011;10510;47.942;9.442;2022-11-14T07:27:59;35.42;;;15.63;;
11486;SDS011;10510;47.942;9.442;2022-11-14T07:29:59;31.45;;;13.95;;
11486;SDS011;10510;47.942;9.442;2022-11-14T07:31:59;27.33;;;13.13;;
11486;SDS011;10510;47.942;9.442;2022-11-14T07:33:59;30.40;;;14.52;;
11486;SDS011;10510;47.942;9.442;2022-11-14T07:36:00;36.38;;;14.82;;
11486;SDS011;10510;47.942;9.442;2022-11-14T07:38:01;38.03;;;17.38;;
11486;SDS011;10510;47.942;9.442;2022-11-14T07:40:02;36.25;;;17.60;;
11486;SDS011;10510;47.942;9.442;2022-11-14T07:42:03;38.10;;;15.70;;
11486;SDS011;10510;47.942;9.442;2022-11-14T07:44:03;32.78;;;15.73;;
11486;SDS011;10510;47.942;9.442;2022-11-14T07:46:37;29.40;;;14.30;;
11486;SDS011;10510;47.942;9.442;2022-11-14T07:48:30;32.97;;;15.00;;
11486;SDS011;10510;47.942;9.442;2022-11-14T07:50:30;38.25;;;16.88;;
11486;SDS011;10510;47.942;9.442;2022-11-14T07:52:31;41.78;;;17.15;;
11486;SDS011;10510;47.942;9.442;2022-11-14T07:54:32;35.08;;;16.27;;
11486;SDS011;10510;47.942;9.442;2022-11-14T07:56:32;32.47;;;14.98;;
11486;SDS011;10510;47.942;9.442;2022-11-14T07:58:36;32.58;;;15.35;;
11486;SDS011;10510;47.942;9.442;2022-11-14T08:00:38;38.22;;;16.70;;
11486;SDS011;10510;47.942;9.442;2022-11-14T08:02:38;39.08;;;17.20;;
11486;SDS011;10510;47.942;9.442;2022-11-14T08:04:39;32.65;;;16.00;;
11486;SDS011;10510;47.942;9.442;2022-11-14T08:06:40;32.78;;;14.10;;
11486;SDS011;10510;47.942;9.442;2022-11-14T08:08:40;33.95;;;14.75;;
11486;SDS011;10510;47.942;9.442;2022-11-14T08:10:41;32.38;;;13.95;;
11486;SDS011;10510;47.942;9.442;2022-11-14T08:12:41;29.70;;;14.98;;
11486;SDS011;10510;47.942;9.442;2022-11-14T08:14:41;34.03;;;17.40;;
11486;SDS011;10510;47.942;9.442;2022-11-14T08:16:42;27.23;;;13.20;;
11486;SDS011;10510;47.942;9.442;2022-11-14T08:18:42;28.80;;;13.50;;
11486;SDS011;10510;47.942;9.442;2022-11-14T08:20:42;24.92;;;12.73;;
11486;SDS011;10510;47.942;9.442;2022-11-14T08:22:43;28.45;;;12.63;;
11486;SDS011;10510;47.942;9.442;2022-11-14T08:24:43;29.42;;;11.45;;
11486;SDS011;10510;47.942;9.442;2022-11-14T08:26:44;27.05;;;12.00;;
11486;SDS011;10510;47.942;9.442;2022-11-14T08:28:44;30.75;;;12.77;;
11486;SDS011;10510;47.942;9.442;2022-11-14T08:30:44;27.67;;;13.77;;
11486;SDS011;10510;47.942;9.442;2022-11-14T08:32:45;29.08;;;13.32;;
11486;SDS011;10510;47.942;9.442;2022-11-14T08:34:45;25.95;;;12.60;;
11486;SDS011;10510;47.942;9.442;2022-11-14T08:36:45;29.63;;;12.02;;
11486;SDS011;10510;47.942;9.442;2022-11-14T08:38:45;21.90;;;10.38;;
11486;SDS011;10510;47.942;9.442;2022-11-14T08:40:46;21.23;;;10.25;;
11486;SDS011;10510;47.942;9.442;2022-11-14T08:42:46;20.27;;;9.40;;
11486;SDS011;10510;47.942;9.442;2022-11-14T08:44:46;19.17;;;9.38;;
11486;SDS011;10510;47.942;9.442;2022-11-14T08:46:47;19.13;;;9.52;;
11486;SDS011;10510;47.942;9.442;2022-11-14T08:48:48;15.90;;;9.02;;
11486;SDS011;10510;47.942;9.442;2022-11-14T08:50:49;24.05;;;9.18;;
11486;SDS011;10510;47.942;9.442;2022-11-14T08:52:49;18.77;;;8.20;;
11486;SDS011;10510;47.942;9.442;2022-11-14T08:54:50;13.43;;;6.28;;
11486;SDS011;10510;47.942;9.442;2022-11-14T08:56:51;12.63;;;6.25;;
11486;SDS011;10510;47.942;9.442;2022-11-14T08:58:51;13.27;;;6.63;;
11486;SDS011;10510;47.942;9.442;2022-11-14T09:00:51;13.23;;;5.53;;
11486;SDS011;10510;47.942;9.442;2022-11-14T09:02:52;12.02;;;5.43;;
11486;SDS011;10510;47.942;9.442;2022-11-14T09:04:52;12.90;;;6.18;;
11486;SDS011;10510;47.942;9.442;2022-11-14T09:06:52;11.93;;;5.25;;
11486;SDS011;10510;47.942;9.442;2022-11-14T09:08:52;9.05;;;4.57;;
11486;SDS011;10510;47.942;9.442;2022-11-14T09:10:53;11.00;;;4.95;;
11486;SDS011;10510;47.942;9.442;2022-11-14T09:12:54;8.23;;;4.95;;
11486;SDS011;10510;47.942;9.442;2022-11-14T09:14:58;8.95;;;4.28;;
11486;SDS011;10510;47.942;9.442;2022-11-14T09:16:58;7.30;;;3.83;;
11486;SDS011;10510;47.942;9.442;2022-11-14T09:18:59;10.50;;;3.70;;
11486;SDS011;10510;47.942;9.442;2022-11-14T09:21:03;7.93;;;3.63;;
11486;SDS011;10510;47.942;9.442;2022-11-14T09:23:05;7.38;;;3.83;;
11486;SDS011;10510;47.942;9.442;2022-11-14T09:25:06;7.95;;;3.25;;
11486;SDS011;10510;47.942;9.442;2022-11-14T09:27:07;5.25;;;2.80;;
11486;SDS011;10510;47.942;9.442;2022-11-14T09:29:08;6.53;;;2.80;;
11486;SDS011;10510;47.942;9.442;2022-11-14T09:31:09;7.25;;;2.00;;
11486;SDS011;10510;47.942;9.442;2022-11-14T09:33:10;2.35;;;1.60;;
11486;SDS011;10510;47.942;9.442;2022-11-14T09:35:10;4.35;;;2.03;;
11486;SDS011;10510;47.942;9.442;2022-11-14T09:37:11;3.78;;;1.92;;
11486;SDS011;10510;47.942;9.442;2022-11-14T09:39:12;3.45;;;1.73;;
11486;SDS011;10510;47.942;9.442;2022-11-14T09:46:00;7.07;;;4.70;;
11486;SDS011;10510;47.942;9.442;2022-11-14T09:48:06;2.78;;;2.00;;
11486;SDS011;10510;47.942;9.442;2022-11-14T09:50:13;2.75;;;1.63;;
11486;SDS011;10510;47.942;9.442;2022-11-14T09:54:27;1.98;;;1.20;;
11486;SDS011;10510;47.942;9.442;2022-11-14T09:56:34;2.17;;;1.27;;
11486;SDS011;10510;47.942;9.442;2022-11-14T09:58:35;5.72;;;2.72;;
11486;SDS011;10510;47.942;9.442;2022-11-14T10:00:55;4.63;;;2.40;;
11486;SDS011;10510;47.942;9.442;2022-11-14T10:08:22;2.90;;;0.80;;
11486;SDS011;10510;47.942;9.442;2022-11-14T10:15:25;4.07;;;1.05;;
11486;SDS011;10510;47.942;9.442;2022-11-14T10:22:39;3.95;;;1.90;;
11486;SDS011;10510;47.942;9.442;2022-11-14T10:27:06;2.10;;;1.00;;
11486;SDS011;10510;47.942;9.442;2022-11-14T10:33:55;1.88;;;1.10;;
11486;SDS011;10510;47.942;9.442;2022-11-14T10:36:09;2.47;;;1.33;;
11486;SDS011;10510;47.942;9.442;2022-11-14T10:40:32;3.78;;;1.67;;
11486;SDS011;10510;47.942;9.442;2022-11-14T10:42:38;1.92;;;1.20;;
11486;SDS011;10510;47.942;9.442;2022-11-14T10:44:41;2.47;;;1.10;;
11486;SDS011;10510;47.942;9.442;2022-11-14T10:46:51;1.75;;;1.00;;
11486;SDS011;10510;47.942;9.442;2022-11-14T10:48:54;2.50;;;1.20;;
11486;SDS011;10510;47.942;9.442;2022-11-14T10:50:58;1.73;;;1.02;;
11486;SDS011;10510;47.942;9.442;2022-11-14T10:53:03;2.47;;;1.33;;
11486;SDS011;10510;47.942;9.442;2022-11-14T10:55:07;3.72;;;1.10;;
11486;SDS011;10510;47.942;9.442;2022-11-14T10:57:14;4.28;;;1.70;;
11486;SDS011;10510;47.942;9.442;2022-11-14T10:59:19;2.08;;;1.27;;
11486;SDS011;10510;47.942;9.442;2022-11-14T11:03:41;2.50;;;1.00;;
11486;SDS011;10510;47.942;9.442;2022-11-14T11:05:49;2.58;;;1.38;;
11486;SDS011;10510;47.942;9.442;2022-11-14T11:07:57;1.75;;;1.15;;
11486;SDS011;10510;47.942;9.442;2022-11-14T11:10:21;10.27;;;4.65;;
11486;SDS011;10510;47.942;9.442;2022-11-14T11:12:48;10.70;;;5.65;;
11486;SDS011;10510;47.942;9.442;2022-11-14T11:17:14;2.50;;;1.30;;
11486;SDS011;10510;47.942;9.442;2022-11-14T11:19:24;5.18;;;3.05;;
11486;SDS011;10510;47.942;9.442;2022-11-14T11:21:25;2.85;;;1.65;;
11486;SDS011;10510;47.942;9.442;2022-11-14T11:23:26;2.00;;;1.05;;
11486;SDS011;10510;47.942;9.442;2022-11-14T11:25:27;2.90;;;1.55;;
11486;SDS011;10510;47.942;9.442;2022-11-14T11:27:29;3.95;;;1.95;;
11486;SDS011;10510;47.942;9.442;2022-11-14T11:29:29;2.90;;;1.65;;
11486;SDS011;10510;47.942;9.442;2022-11-14T11:31:49;5.45;;;2.00;;
11486;SDS011;10510;47.942;9.442;2022-11-14T11:33:49;3.75;;;2.00;;
11486;SDS011;10510;47.942;9.442;2022-11-14T11:35:50;5.43;;;2.78;;
11486;SDS011;10510;47.942;9.442;2022-11-14T11:37:55;52.47;;;20.23;;
11486;SDS011;10510;47.942;9.442;2022-11-14T11:40:00;9.13;;;4.15;;
11486;SDS011;10510;47.942;9.442;2022-11-14T11:42:04;7.20;;;4.22;;
11486;SDS011;10510;47.942;9.442;2022-11-14T11:44:11;6.90;;;3.53;;
11486;SDS011;10510;47.942;9.442;2022-11-14T11:46:18;4.78;;;2.10;;
11486;SDS011;10510;47.942;9.442;2022-11-14T11:48:27;3.17;;;1.92;;
11486;SDS011;10510;47.942;9.442;2022-11-14T11:50:36;3.60;;;2.13;;
11486;SDS011;10510;47.942;9.442;2022-11-14T11:57:02;11.73;;;3.60;;
11486;SDS011;10510;47.942;9.442;2022-11-14T11:59:20;6.57;;;2.47;;
11486;SDS011;10510;47.942;9.442;2022-11-14T12:01:28;13.73;;;5.80;;
11486;SDS011;10510;47.942;9.442;2022-11-14T12:03:28;12.82;;;5.18;;
11486;SDS011;10510;47.942;9.442;2022-11-14T12:07:57;8.77;;;4.32;;
11486;SDS011;10510;47.942;9.442;2022-11-14T12:10:02;6.93;;;4.57;;
11486;SDS011;10510;47.942;9.442;2022-11-14T12:12:23;5.78;;;3.85;;
11486;SDS011;10510;47.942;9.442;2022-11-14T12:21:36;7.20;;;4.07;;
11486;SDS011;10510;47.942;9.442;2022-11-14T12:25:58;5.85;;;3.15;;
11486;SDS011;10510;47.942;9.442;2022-11-14T12:31:03;6.63;;;2.95;;
11486;SDS011;10510;47.942;9.442;2022-11-14T12:33:20;14.82;;;8.98;;
11486;SDS011;10510;47.942;9.442;2022-11-14T12:35:31;8.77;;;5.45;;
11486;SDS011;10510;47.942;9.442;2022-11-14T12:37:35;7.28;;;3.55;;
11486;SDS011;10510;47.942;9.442;2022-11-14T12:39:42;11.63;;;8.15;;
11486;SDS011;10510;47.942;9.442;2022-11-14T12:42:01;11.15;;;7.03;;
11486;SDS011;10510;47.942;9.442;2022-11-14T12:44:17;5.22;;;3.10;;
11486;SDS011;10510;47.942;9.442;2022-11-14T12:46:24;32.75;;;20.20;;
11486;SDS011;10510;47.942;9.442;2022-11-14T12:50:29;25.43;;;13.83;;
11486;SDS011;10510;47.942;9.442;2022-11-14T12:54:47;9.13;;;5.05;;
11486;SDS011;10510;47.942;9.442;2022-11-14T12:56:53;15.00;;;7.13;;
11486;SDS011;10510;47.942;9.442;2022-11-14T13:06:12;18.75;;;8.43;;
11486;SDS011;10510;47.942;9.442;2022-11-14T13:10:39;9.90;;;5.70;;
11486;SDS011;10510;47.942;9.442;2022-11-14T13:12:41;8.48;;;4.22;;
11486;SDS011;10510;47.942;9.442;2022-11-14T13:15:10;15.13;;;5.93;;